sensor_id;sensor_type;location;lat;lon;timestamp;temperature;humidity
19952;DHT22;10137;49.406;19.484;2023-11-19T00:00:29;0.90;99.90
19952;DHT22;10137;49.406;19.484;2023-11-19T00:02:57;0.80;99.90
19952;DHT22;10137;49.406;19.484;2023-11-19T00:05:26;0.70;99.90
19952;DHT22;10137;49.406;19.484;2023-11-19T00:07:55;0.80;99.90
19952;DHT22;10137;49.406;19.484;2023-11-19T00:10:23;0.80;99.90
19952;DHT22;10137;49.406;19.484;2023-11-19T00:12:51;0.90;99.90
19952;DHT22;10137;49.406;19.484;2023-11-19T00:15:19;0.90;99.90
19952;DHT22;10137;49.406;19.484;2023-11-19T00:17:50;0.80;99.90
19952;DHT22;10137;49.406;19.484;2023-11-19T00:20:19;0.70;99.90
19952;DHT22;10137;49.406;19.484;2023-11-19T00:22:50;0.70;99.90
19952;DHT22;10137;49.406;19.484;2023-11-19T00:25:20;0.80;99.90
19952;DHT22;10137;49.406;19.484;2023-11-19T00:27:52;0.90;99.90
19952;DHT22;10137;49.406;19.484;2023-11-19T00:30:20;0.90;99.90
19952;DHT22;10137;49.406;19.484;2023-11-19T00:32:48;0.90;99.90
19952;DHT22;10137;49.406;19.484;2023-11-19T00:35:19;0.90;99.90
19952;DHT22;10137;49.406;19.484;2023-11-19T00:37:47;0.90;99.90
19952;DHT22;10137;49.406;19.484;2023-11-19T00:40:19;0.80;99.90
19952;DHT22;10137;49.406;19.484;2023-11-19T00:42:48;0.80;99.90
19952;DHT22;10137;49.406;19.484;2023-11-19T00:45:16;0.80;99.90
19952;DHT22;10137;49.406;19.484;2023-11-19T00:47:44;0.80;99.90
19952;DHT22;10137;49.406;19.484;2023-11-19T00:50:13;0.80;99.90
19952;DHT22;10137;49.406;19.484;2023-11-19T00:52:43;0.80;99.90
19952;DHT22;10137;49.406;19.484;2023-11-19T00:55:14;0.70;99.90
19952;DHT22;10137;49.406;19.484;2023-11-19T00:57:43;0.70;99.90
19952;DHT22;10137;49.406;19.484;2023-11-19T01:00:15;0.70;99.90
19952;DHT22;10137;49.406;19.484;2023-11-19T01:02:45;0.70;99.90
19952;DHT22;10137;49.406;19.484;2023-11-19T01:05:17;0.80;99.90
19952;DHT22;10137;49.406;19.484;2023-11-19T01:07:47;0.90;99.90
19952;DHT22;10137;49.406;19.484;2023-11-19T01:10:15;0.90;99.90
19952;DHT22;10137;49.406;19.484;2023-11-19T01:12:48;0.90;99.90
19952;DHT22;10137;49.406;19.484;2023-11-19T01:15:17;0.90;99.90
19952;DHT22;10137;49.406;19.484;2023-11-19T01:17:46;0.90;99.90
19952;DHT22;10137;49.406;19.484;2023-11-19T01:20:13;0.80;99.90
19952;DHT22;10137;49.406;19.484;2023-11-19T01:22:40;0.70;99.90
19952;DHT22;10137;49.406;19.484;2023-11-19T01:25:08;0.70;99.90
19952;DHT22;10137;49.406;19.484;2023-11-19T01:27:37;0.80;99.90
19952;DHT22;10137;49.406;19.484;2023-11-19T01:30:08;0.80;99.90
19952;DHT22;10137;49.406;19.484;2023-11-19T01:32:39;0.70;99.90
19952;DHT22;10137;49.406;19.484;2023-11-19T01:35:08;0.80;99.90
19952;DHT22;10137;49.406;19.484;2023-11-19T01:37:39;0.80;99.90
19952;DHT22;10137;49.406;19.484;2023-11-19T01:40:07;0.80;99.90
19952;DHT22;10137;49.406;19.484;2023-11-19T01:42:39;0.70;99.90
19952;DHT22;10137;49.406;19.484;2023-11-19T01:45:27;0.70;99.90
19952;DHT22;10137;49.406;19.484;2023-11-19T01:47:56;0.70;99.90
19952;DHT22;10137;49.406;19.484;2023-11-19T01:50:24;0.70;99.90
19952;DHT22;10137;49.406;19.484;2023-11-19T01:52:54;0.70;99.90
19952;DHT22;10137;49.406;19.484;2023-11-19T01:55:26;0.70;99.90
19952;DHT22;10137;49.406;19.484;2023-11-19T01:57:59;0.70;99.90
19952;DHT22;10137;49.406;19.484;2023-11-19T02:00:29;0.70;99.90
19952;DHT22;10137;49.406;19.484;2023-11-19T02:03:02;0.80;99.90
19952;DHT22;10137;49.406;19.484;2023-11-19T02:05:32;0.70;99.90
19952;DHT22;10137;49.406;19.484;2023-11-19T02:08:01;0.70;99.90
19952;DHT22;10137;49.406;19.484;2023-11-19T02:10:30;0.70;99.90
19952;DHT22;10137;49.406;19.484;2023-11-19T02:12:58;0.80;99.90
19952;DHT22;10137;49.406;19.484;2023-11-19T02:15:31;0.80;99.90
19952;DHT22;10137;49.406;19.484;2023-11-19T02:18:20;0.80;99.90
19952;DHT22;10137;49.406;19.484;2023-11-19T02:20:49;0.80;99.90
19952;DHT22;10137;49.406;19.484;2023-11-19T02:23:18;0.80;99.90
19952;DHT22;10137;49.406;19.484;2023-11-19T02:25:56;0.70;99.90
19952;DHT22;10137;49.406;19.484;2023-11-19T02:28:29;0.80;99.90
19952;DHT22;10137;49.406;19.484;2023-11-19T02:30:57;0.70;99.90
19952;DHT22;10137;49.406;19.484;2023-11-19T02:33:25;0.70;99.90
19952;DHT22;10137;49.406;19.484;2023-11-19T02:35:53;0.70;99.90
19952;DHT22;10137;49.406;19.484;2023-11-19T02:38:22;0.70;99.90
19952;DHT22;10137;49.406;19.484;2023-11-19T02:40:50;0.70;99.90
19952;DHT22;10137;49.406;19.484;2023-11-19T02:43:18;0.80;99.90
19952;DHT22;10137;49.406;19.484;2023-11-19T02:45:48;0.70;99.90
19952;DHT22;10137;49.406;19.484;2023-11-19T02:48:16;0.70;99.90
19952;DHT22;10137;49.406;19.484;2023-11-19T02:50:44;0.70;99.90
19952;DHT22;10137;49.406;19.484;2023-11-19T02:53:14;0.70;99.90
19952;DHT22;10137;49.406;19.484;2023-11-19T02:55:43;0.80;99.90
19952;DHT22;10137;49.406;19.484;2023-11-19T02:58:16;0.80;99.90
19952;DHT22;10137;49.406;19.484;2023-11-19T03:00:51;0.80;99.90
19952;DHT22;10137;49.406;19.484;2023-11-19T03:03:24;0.90;99.90
19952;DHT22;10137;49.406;19.484;2023-11-19T03:05:58;0.90;99.90
19952;DHT22;10137;49.406;19.484;2023-11-19T03:08:26;0.90;99.90
19952;DHT22;10137;49.406;19.484;2023-11-19T03:10:56;0.90;99.90
19952;DHT22;10137;49.406;19.484;2023-11-19T03:13:25;0.80;99.90
19952;DHT22;10137;49.406;19.484;2023-11-19T03:15:56;0.80;99.90
19952;DHT22;10137;49.406;19.484;2023-11-19T03:18:24;0.90;99.90
19952;DHT22;10137;49.406;19.484;2023-11-19T03:20:55;0.90;99.90
19952;DHT22;10137;49.406;19.484;2023-11-19T03:23:25;0.90;99.90
19952;DHT22;10137;49.406;19.484;2023-11-19T03:25:54;0.90;99.90
19952;DHT22;10137;49.406;19.484;2023-11-19T03:28:25;0.90;99.90
19952;DHT22;10137;49.406;19.484;2023-11-19T03:30:56;0.90;99.90
19952;DHT22;10137;49.406;19.484;2023-11-19T03:33:26;0.80;99.90
19952;DHT22;10137;49.406;19.484;2023-11-19T03:35:56;0.70;99.90
19952;DHT22;10137;49.406;19.484;2023-11-19T03:38:24;0.80;99.90
19952;DHT22;10137;49.406;19.484;2023-11-19T03:40:55;0.80;99.90
19952;DHT22;10137;49.406;19.484;2023-11-19T03:43:23;0.70;99.90
19952;DHT22;10137;49.406;19.484;2023-11-19T03:45:52;0.60;99.90
19952;DHT22;10137;49.406;19.484;2023-11-19T03:48:25;0.60;99.90
19952;DHT22;10137;49.406;19.484;2023-11-19T03:50:55;0.60;99.90
19952;DHT22;10137;49.406;19.484;2023-11-19T03:53:22;0.60;99.90
19952;DHT22;10137;49.406;19.484;2023-11-19T03:55:51;0.70;99.90
19952;DHT22;10137;49.406;19.484;2023-11-19T03:58:19;0.70;99.90
19952;DHT22;10137;49.406;19.484;2023-11-19T04:00:48;0.80;99.90
19952;DHT22;10137;49.406;19.484;2023-11-19T04:03:24;0.70;99.90
19952;DHT22;10137;49.406;19.484;2023-11-19T04:05:53;0.60;99.90
19952;DHT22;10137;49.406;19.484;2023-11-19T04:08:21;0.60;99.90
19952;DHT22;10137;49.406;19.484;2023-11-19T04:10:49;0.60;99.90
19952;DHT22;10137;49.406;19.484;2023-11-19T04:13:17;0.50;99.90
19952;DHT22;10137;49.406;19.484;2023-11-19T04:15:46;0.50;99.90
19952;DHT22;10137;49.406;19.484;2023-11-19T04:18:14;0.50;99.90
19952;DHT22;10137;49.406;19.484;2023-11-19T04:20:46;0.60;99.90
19952;DHT22;10137;49.406;19.484;2023-11-19T04:23:17;0.50;99.90
19952;DHT22;10137;49.406;19.484;2023-11-19T04:25:45;0.60;99.90
19952;DHT22;10137;49.406;19.484;2023-11-19T04:28:14;0.60;99.90
19952;DHT22;10137;49.406;19.484;2023-11-19T04:30:42;0.50;99.90
19952;DHT22;10137;49.406;19.484;2023-11-19T04:33:11;0.60;99.90
19952;DHT22;10137;49.406;19.484;2023-11-19T04:35:40;0.50;99.90
19952;DHT22;10137;49.406;19.484;2023-11-19T04:38:10;0.50;99.90
19952;DHT22;10137;49.406;19.484;2023-11-19T04:40:38;0.50;99.90
19952;DHT22;10137;49.406;19.484;2023-11-19T04:43:05;0.50;99.90
19952;DHT22;10137;49.406;19.484;2023-11-19T04:45:34;0.50;99.90
19952;DHT22;10137;49.406;19.484;2023-11-19T04:48:02;0.50;99.90
19952;DHT22;10137;49.406;19.484;2023-11-19T04:50:30;0.50;99.90
19952;DHT22;10137;49.406;19.484;2023-11-19T04:52:59;0.50;99.90
19952;DHT22;10137;49.406;19.484;2023-11-19T04:55:31;0.40;99.90
19952;DHT22;10137;49.406;19.484;2023-11-19T04:57:59;0.40;99.90
19952;DHT22;10137;49.406;19.484;2023-11-19T05:00:27;0.30;99.90
19952;DHT22;10137;49.406;19.484;2023-11-19T05:02:55;0.20;99.90
19952;DHT22;10137;49.406;19.484;2023-11-19T05:05:23;0.20;99.90
19952;DHT22;10137;49.406;19.484;2023-11-19T05:07:55;0.30;99.90
19952;DHT22;10137;49.406;19.484;2023-11-19T05:10:24;0.20;99.90
19952;DHT22;10137;49.406;19.484;2023-11-19T05:12:53;0.10;99.90
19952;DHT22;10137;49.406;19.484;2023-11-19T05:15:23;0.10;99.90
19952;DHT22;10137;49.406;19.484;2023-11-19T05:17:55;0.00;99.90
19952;DHT22;10137;49.406;19.484;2023-11-19T05:20:23;0.00;99.90
19952;DHT22;10137;49.406;19.484;2023-11-19T05:22:55;0.00;99.90
19952;DHT22;10137;49.406;19.484;2023-11-19T05:25:26;0.10;99.90
19952;DHT22;10137;49.406;19.484;2023-11-19T05:27:58;0.10;99.90
19952;DHT22;10137;49.406;19.484;2023-11-19T05:30:26;0.10;99.90
19952;DHT22;10137;49.406;19.484;2023-11-19T05:32:54;-0.10;99.90
19952;DHT22;10137;49.406;19.484;2023-11-19T05:35:23;0.00;99.90
19952;DHT22;10137;49.406;19.484;2023-11-19T05:37:51;-0.10;99.90
19952;DHT22;10137;49.406;19.484;2023-11-19T05:40:19;-0.10;99.90
19952;DHT22;10137;49.406;19.484;2023-11-19T05:42:47;-0.20;99.90
19952;DHT22;10137;49.406;19.484;2023-11-19T05:45:16;-0.20;99.90
19952;DHT22;10137;49.406;19.484;2023-11-19T05:47:46;-0.20;99.90
19952;DHT22;10137;49.406;19.484;2023-11-19T05:50:14;0.00;99.90
19952;DHT22;10137;49.406;19.484;2023-11-19T05:52:42;0.10;99.90
19952;DHT22;10137;49.406;19.484;2023-11-19T05:55:10;0.10;99.90
19952;DHT22;10137;49.406;19.484;2023-11-19T05:57:38;0.10;99.90
19952;DHT22;10137;49.406;19.484;2023-11-19T06:00:08;0.20;99.90
19952;DHT22;10137;49.406;19.484;2023-11-19T06:02:47;0.30;99.90
19952;DHT22;10137;49.406;19.484;2023-11-19T06:05:15;0.30;99.90
19952;DHT22;10137;49.406;19.484;2023-11-19T06:07:47;0.30;99.90
19952;DHT22;10137;49.406;19.484;2023-11-19T06:10:15;0.20;99.90
19952;DHT22;10137;49.406;19.484;2023-11-19T06:12:48;0.20;99.90
19952;DHT22;10137;49.406;19.484;2023-11-19T06:15:23;0.10;99.90
19952;DHT22;10137;49.406;19.484;2023-11-19T06:18:00;0.20;99.90
19952;DHT22;10137;49.406;19.484;2023-11-19T06:20:31;0.20;99.90
19952;DHT22;10137;49.406;19.484;2023-11-19T06:23:03;0.20;99.90
19952;DHT22;10137;49.406;19.484;2023-11-19T06:25:31;0.30;99.90
19952;DHT22;10137;49.406;19.484;2023-11-19T06:28:03;0.30;99.90
19952;DHT22;10137;49.406;19.484;2023-11-19T06:30:33;0.20;99.90
19952;DHT22;10137;49.406;19.484;2023-11-19T06:33:12;0.20;99.90
19952;DHT22;10137;49.406;19.484;2023-11-19T06:35:41;0.20;99.90
19952;DHT22;10137;49.406;19.484;2023-11-19T06:38:11;0.30;99.90
19952;DHT22;10137;49.406;19.484;2023-11-19T06:40:42;0.30;99.90
19952;DHT22;10137;49.406;19.484;2023-11-19T06:43:10;0.30;99.90
19952;DHT22;10137;49.406;19.484;2023-11-19T06:45:40;0.30;99.90
19952;DHT22;10137;49.406;19.484;2023-11-19T06:48:16;0.40;99.90
19952;DHT22;10137;49.406;19.484;2023-11-19T06:50:48;0.40;99.90
19952;DHT22;10137;49.406;19.484;2023-11-19T06:53:17;0.40;99.90
19952;DHT22;10137;49.406;19.484;2023-11-19T06:55:48;0.40;99.90
19952;DHT22;10137;49.406;19.484;2023-11-19T06:58:18;0.40;99.90
19952;DHT22;10137;49.406;19.484;2023-11-19T07:00:50;0.50;99.90
19952;DHT22;10137;49.406;19.484;2023-11-19T07:03:24;0.50;99.90
19952;DHT22;10137;49.406;19.484;2023-11-19T07:05:55;0.50;99.90
19952;DHT22;10137;49.406;19.484;2023-11-19T07:08:28;0.50;99.90
19952;DHT22;10137;49.406;19.484;2023-11-19T07:11:07;0.50;99.90
19952;DHT22;10137;49.406;19.484;2023-11-19T07:13:39;0.60;99.90
19952;DHT22;10137;49.406;19.484;2023-11-19T07:16:10;0.60;99.90
19952;DHT22;10137;49.406;19.484;2023-11-19T07:18:41;0.70;99.90
19952;DHT22;10137;49.406;19.484;2023-11-19T07:21:10;0.70;99.90
19952;DHT22;10137;49.406;19.484;2023-11-19T07:23:39;0.70;99.90
19952;DHT22;10137;49.406;19.484;2023-11-19T07:26:09;0.80;99.90
19952;DHT22;10137;49.406;19.484;2023-11-19T07:28:40;0.90;99.90
19952;DHT22;10137;49.406;19.484;2023-11-19T07:31:10;1.00;99.90
19952;DHT22;10137;49.406;19.484;2023-11-19T07:33:43;1.10;99.90
19952;DHT22;10137;49.406;19.484;2023-11-19T07:36:15;1.30;99.90
19952;DHT22;10137;49.406;19.484;2023-11-19T07:38:43;1.40;99.90
19952;DHT22;10137;49.406;19.484;2023-11-19T07:41:12;1.60;99.90
19952;DHT22;10137;49.406;19.484;2023-11-19T07:43:42;1.60;99.90
19952;DHT22;10137;49.406;19.484;2023-11-19T07:46:14;1.60;99.90
19952;DHT22;10137;49.406;19.484;2023-11-19T07:48:43;1.50;99.90
19952;DHT22;10137;49.406;19.484;2023-11-19T07:51:11;1.40;99.90
19952;DHT22;10137;49.406;19.484;2023-11-19T07:53:40;1.40;99.90
19952;DHT22;10137;49.406;19.484;2023-11-19T07:56:07;1.50;99.90
19952;DHT22;10137;49.406;19.484;2023-11-19T07:58:37;1.50;99.90
19952;DHT22;10137;49.406;19.484;2023-11-19T08:01:05;1.50;99.90
19952;DHT22;10137;49.406;19.484;2023-11-19T08:03:34;1.50;99.90
19952;DHT22;10137;49.406;19.484;2023-11-19T08:06:04;1.50;99.90
19952;DHT22;10137;49.406;19.484;2023-11-19T08:08:34;1.40;99.90
19952;DHT22;10137;49.406;19.484;2023-11-19T08:11:02;1.50;99.90
19952;DHT22;10137;49.406;19.484;2023-11-19T08:13:33;1.50;99.90
19952;DHT22;10137;49.406;19.484;2023-11-19T08:16:04;1.60;99.90
19952;DHT22;10137;49.406;19.484;2023-11-19T08:18:32;1.60;99.90
19952;DHT22;10137;49.406;19.484;2023-11-19T08:21:05;1.60;99.90
19952;DHT22;10137;49.406;19.484;2023-11-19T08:23:34;1.60;99.90
19952;DHT22;10137;49.406;19.484;2023-11-19T08:26:02;1.50;99.90
19952;DHT22;10137;49.406;19.484;2023-11-19T08:28:33;1.50;99.90
19952;DHT22;10137;49.406;19.484;2023-11-19T08:31:02;1.40;99.90
19952;DHT22;10137;49.406;19.484;2023-11-19T08:33:32;1.50;99.90
19952;DHT22;10137;49.406;19.484;2023-11-19T08:36:05;1.50;99.90
19952;DHT22;10137;49.406;19.484;2023-11-19T08:38:37;1.50;99.90
19952;DHT22;10137;49.406;19.484;2023-11-19T08:41:06;1.60;99.90
19952;DHT22;10137;49.406;19.484;2023-11-19T08:43:34;1.60;99.90
19952;DHT22;10137;49.406;19.484;2023-11-19T08:46:02;1.60;99.90
19952;DHT22;10137;49.406;19.484;2023-11-19T08:48:29;1.60;99.90
19952;DHT22;10137;49.406;19.484;2023-11-19T08:50:58;1.60;99.90
19952;DHT22;10137;49.406;19.484;2023-11-19T08:53:27;1.60;99.90
19952;DHT22;10137;49.406;19.484;2023-11-19T08:55:56;1.60;99.90
19952;DHT22;10137;49.406;19.484;2023-11-19T08:58:24;1.60;99.90
19952;DHT22;10137;49.406;19.484;2023-11-19T09:00:52;1.50;99.90
19952;DHT22;10137;49.406;19.484;2023-11-19T09:03:20;1.40;99.90
19952;DHT22;10137;49.406;19.484;2023-11-19T09:05:48;1.40;99.90
19952;DHT22;10137;49.406;19.484;2023-11-19T09:08:15;1.40;99.90
19952;DHT22;10137;49.406;19.484;2023-11-19T09:10:44;1.40;99.90
19952;DHT22;10137;49.406;19.484;2023-11-19T09:13:12;1.40;99.90
19952;DHT22;10137;49.406;19.484;2023-11-19T09:15:43;1.40;99.90
19952;DHT22;10137;49.406;19.484;2023-11-19T09:18:11;1.40;99.90
19952;DHT22;10137;49.406;19.484;2023-11-19T09:20:41;1.50;99.90
19952;DHT22;10137;49.406;19.484;2023-11-19T09:23:10;1.50;99.90
19952;DHT22;10137;49.406;19.484;2023-11-19T09:25:37;1.50;99.90
19952;DHT22;10137;49.406;19.484;2023-11-19T09:28:07;1.50;99.90
19952;DHT22;10137;49.406;19.484;2023-11-19T09:30:38;1.50;99.90
19952;DHT22;10137;49.406;19.484;2023-11-19T09:33:08;1.50;99.90
19952;DHT22;10137;49.406;19.484;2023-11-19T09:35:38;1.50;99.90
19952;DHT22;10137;49.406;19.484;2023-11-19T09:38:07;1.50;99.90
19952;DHT22;10137;49.406;19.484;2023-11-19T09:40:34;1.50;99.90
19952;DHT22;10137;49.406;19.484;2023-11-19T09:43:02;1.50;99.90
19952;DHT22;10137;49.406;19.484;2023-11-19T09:45:45;1.50;99.90
19952;DHT22;10137;49.406;19.484;2023-11-19T09:48:16;1.50;99.90
19952;DHT22;10137;49.406;19.484;2023-11-19T09:50:44;1.60;99.90
19952;DHT22;10137;49.406;19.484;2023-11-19T09:53:14;1.60;99.90
19952;DHT22;10137;49.406;19.484;2023-11-19T09:55:42;1.60;99.90
19952;DHT22;10137;49.406;19.484;2023-11-19T09:58:12;1.60;99.90
19952;DHT22;10137;49.406;19.484;2023-11-19T10:00:42;1.70;99.90
19952;DHT22;10137;49.406;19.484;2023-11-19T10:03:14;1.70;99.90
19952;DHT22;10137;49.406;19.484;2023-11-19T10:05:42;1.70;99.90
19952;DHT22;10137;49.406;19.484;2023-11-19T10:08:17;1.80;99.90
19952;DHT22;10137;49.406;19.484;2023-11-19T10:10:44;1.70;99.90
19952;DHT22;10137;49.406;19.484;2023-11-19T10:13:12;1.70;99.90
19952;DHT22;10137;49.406;19.484;2023-11-19T10:15:48;1.80;99.90
19952;DHT22;10137;49.406;19.484;2023-11-19T10:18:23;1.70;99.90
19952;DHT22;10137;49.406;19.484;2023-11-19T10:20:51;1.70;99.90
19952;DHT22;10137;49.406;19.484;2023-11-19T10:23:18;1.60;99.90
19952;DHT22;10137;49.406;19.484;2023-11-19T10:25:48;1.70;99.90
19952;DHT22;10137;49.406;19.484;2023-11-19T10:28:22;1.70;99.90
19952;DHT22;10137;49.406;19.484;2023-11-19T10:30:56;1.60;99.90
19952;DHT22;10137;49.406;19.484;2023-11-19T10:33:23;1.60;99.90
19952;DHT22;10137;49.406;19.484;2023-11-19T10:35:56;1.60;99.90
19952;DHT22;10137;49.406;19.484;2023-11-19T10:38:24;1.70;99.90
19952;DHT22;10137;49.406;19.484;2023-11-19T10:40:54;1.60;99.90
19952;DHT22;10137;49.406;19.484;2023-11-19T10:43:23;1.70;99.90
19952;DHT22;10137;49.406;19.484;2023-11-19T10:46:12;1.70;99.90
19952;DHT22;10137;49.406;19.484;2023-11-19T10:48:40;1.70;99.90
19952;DHT22;10137;49.406;19.484;2023-11-19T10:51:08;1.70;99.90
19952;DHT22;10137;49.406;19.484;2023-11-19T10:53:37;1.70;99.90
19952;DHT22;10137;49.406;19.484;2023-11-19T10:56:10;1.70;99.90
19952;DHT22;10137;49.406;19.484;2023-11-19T10:58:46;1.70;99.90
19952;DHT22;10137;49.406;19.484;2023-11-19T11:01:19;1.80;99.90
19952;DHT22;10137;49.406;19.484;2023-11-19T11:03:47;1.80;99.90
19952;DHT22;10137;49.406;19.484;2023-11-19T11:06:17;1.80;99.90
19952;DHT22;10137;49.406;19.484;2023-11-19T11:08:46;1.80;99.90
19952;DHT22;10137;49.406;19.484;2023-11-19T11:11:15;1.80;99.90
19952;DHT22;10137;49.406;19.484;2023-11-19T11:13:48;1.90;99.90
19952;DHT22;10137;49.406;19.484;2023-11-19T11:16:20;1.90;99.90
19952;DHT22;10137;49.406;19.484;2023-11-19T11:18:49;1.90;99.90
19952;DHT22;10137;49.406;19.484;2023-11-19T11:21:21;1.90;99.90
19952;DHT22;10137;49.406;19.484;2023-11-19T11:24:15;1.90;99.90
19952;DHT22;10137;49.406;19.484;2023-11-19T11:27:08;1.80;99.90
19952;DHT22;10137;49.406;19.484;2023-11-19T11:29:44;1.80;99.90
19952;DHT22;10137;49.406;19.484;2023-11-19T11:32:25;1.70;99.90
19952;DHT22;10137;49.406;19.484;2023-11-19T11:35:09;1.60;99.90
19952;DHT22;10137;49.406;19.484;2023-11-19T11:37:42;1.60;99.90
19952;DHT22;10137;49.406;19.484;2023-11-19T11:40:15;1.40;99.90
19952;DHT22;10137;49.406;19.484;2023-11-19T11:42:44;1.40;99.90
19952;DHT22;10137;49.406;19.484;2023-11-19T11:45:12;1.40;99.90
19952;DHT22;10137;49.406;19.484;2023-11-19T11:48:14;1.40;99.90
19952;DHT22;10137;49.406;19.484;2023-11-19T11:50:53;1.40;99.90
19952;DHT22;10137;49.406;19.484;2023-11-19T11:53:22;1.30;99.90
19952;DHT22;10137;49.406;19.484;2023-11-19T11:55:59;1.40;99.90
19952;DHT22;10137;49.406;19.484;2023-11-19T11:58:32;1.30;99.90
19952;DHT22;10137;49.406;19.484;2023-11-19T12:01:03;1.30;99.90
19952;DHT22;10137;49.406;19.484;2023-11-19T12:03:38;1.30;99.90
19952;DHT22;10137;49.406;19.484;2023-11-19T12:06:06;1.30;99.90
19952;DHT22;10137;49.406;19.484;2023-11-19T12:08:35;1.30;99.90
19952;DHT22;10137;49.406;19.484;2023-11-19T12:11:06;1.30;99.90
19952;DHT22;10137;49.406;19.484;2023-11-19T12:13:55;1.30;99.90
19952;DHT22;10137;49.406;19.484;2023-11-19T12:16:26;1.40;99.90
19952;DHT22;10137;49.406;19.484;2023-11-19T12:18:56;1.40;99.90
19952;DHT22;10137;49.406;19.484;2023-11-19T12:21:30;1.50;99.90
19952;DHT22;10137;49.406;19.484;2023-11-19T12:24:00;1.50;99.90
19952;DHT22;10137;49.406;19.484;2023-11-19T12:26:37;1.50;99.90
19952;DHT22;10137;49.406;19.484;2023-11-19T12:29:05;1.60;99.90
19952;DHT22;10137;49.406;19.484;2023-11-19T12:31:40;1.50;99.90
19952;DHT22;10137;49.406;19.484;2023-11-19T12:34:13;1.60;99.90
19952;DHT22;10137;49.406;19.484;2023-11-19T12:36:44;1.60;99.90
19952;DHT22;10137;49.406;19.484;2023-11-19T12:39:16;1.60;99.90
19952;DHT22;10137;49.406;19.484;2023-11-19T12:41:52;1.60;99.90
19952;DHT22;10137;49.406;19.484;2023-11-19T12:44:28;1.60;99.90
19952;DHT22;10137;49.406;19.484;2023-11-19T12:47:10;1.70;99.90
19952;DHT22;10137;49.406;19.484;2023-11-19T12:49:42;1.70;99.90
19952;DHT22;10137;49.406;19.484;2023-11-19T12:52:13;1.70;99.90
19952;DHT22;10137;49.406;19.484;2023-11-19T12:54:45;1.80;99.90
19952;DHT22;10137;49.406;19.484;2023-11-19T12:57:40;1.80;99.90
19952;DHT22;10137;49.406;19.484;2023-11-19T13:00:17;1.80;99.90
19952;DHT22;10137;49.406;19.484;2023-11-19T13:02:48;1.80;99.90
19952;DHT22;10137;49.406;19.484;2023-11-19T13:05:26;1.80;99.90
19952;DHT22;10137;49.406;19.484;2023-11-19T13:08:01;1.80;99.90
19952;DHT22;10137;49.406;19.484;2023-11-19T13:10:30;1.80;99.90
19952;DHT22;10137;49.406;19.484;2023-11-19T13:13:06;1.80;99.90
19952;DHT22;10137;49.406;19.484;2023-11-19T13:15:35;1.80;99.90
19952;DHT22;10137;49.406;19.484;2023-11-19T13:18:04;1.80;99.90
19952;DHT22;10137;49.406;19.484;2023-11-19T13:20:39;1.80;99.90
19952;DHT22;10137;49.406;19.484;2023-11-19T13:23:10;1.70;99.90
19952;DHT22;10137;49.406;19.484;2023-11-19T13:25:47;1.80;99.90
19952;DHT22;10137;49.406;19.484;2023-11-19T13:28:14;1.70;99.90
19952;DHT22;10137;49.406;19.484;2023-11-19T13:30:42;1.70;99.90
19952;DHT22;10137;49.406;19.484;2023-11-19T13:33:10;1.60;99.90
19952;DHT22;10137;49.406;19.484;2023-11-19T13:35:46;1.60;99.90
19952;DHT22;10137;49.406;19.484;2023-11-19T13:38:18;1.60;99.90
19952;DHT22;10137;49.406;19.484;2023-11-19T13:40:46;1.60;99.90
19952;DHT22;10137;49.406;19.484;2023-11-19T13:43:13;1.60;99.90
19952;DHT22;10137;49.406;19.484;2023-11-19T13:45:41;1.60;99.90
19952;DHT22;10137;49.406;19.484;2023-11-19T13:48:13;1.60;99.90
19952;DHT22;10137;49.406;19.484;2023-11-19T13:50:44;1.60;99.90
19952;DHT22;10137;49.406;19.484;2023-11-19T13:53:11;1.60;99.90
19952;DHT22;10137;49.406;19.484;2023-11-19T13:55:43;1.60;99.90
19952;DHT22;10137;49.406;19.484;2023-11-19T13:58:11;1.60;99.90
19952;DHT22;10137;49.406;19.484;2023-11-19T14:00:38;1.60;99.90
19952;DHT22;10137;49.406;19.484;2023-11-19T14:03:08;1.50;99.90
19952;DHT22;10137;49.406;19.484;2023-11-19T14:05:38;1.50;99.90
19952;DHT22;10137;49.406;19.484;2023-11-19T14:08:08;1.50;99.90
19952;DHT22;10137;49.406;19.484;2023-11-19T14:10:37;1.50;99.90
19952;DHT22;10137;49.406;19.484;2023-11-19T14:13:08;1.60;99.90
19952;DHT22;10137;49.406;19.484;2023-11-19T14:15:37;1.50;99.90
19952;DHT22;10137;49.406;19.484;2023-11-19T14:18:08;1.60;99.90
19952;DHT22;10137;49.406;19.484;2023-11-19T14:20:53;1.60;99.90
19952;DHT22;10137;49.406;19.484;2023-11-19T14:23:26;1.60;99.90
19952;DHT22;10137;49.406;19.484;2023-11-19T14:26:00;1.70;99.90
19952;DHT22;10137;49.406;19.484;2023-11-19T14:28:28;1.70;99.90
19952;DHT22;10137;49.406;19.484;2023-11-19T14:30:58;1.60;99.90
19952;DHT22;10137;49.406;19.484;2023-11-19T14:33:36;1.70;99.90
19952;DHT22;10137;49.406;19.484;2023-11-19T14:36:09;1.70;99.90
19952;DHT22;10137;49.406;19.484;2023-11-19T14:38:43;1.80;99.90
19952;DHT22;10137;49.406;19.484;2023-11-19T14:41:10;1.70;99.90
19952;DHT22;10137;49.406;19.484;2023-11-19T14:43:39;1.70;99.90
19952;DHT22;10137;49.406;19.484;2023-11-19T14:46:06;1.70;99.90
19952;DHT22;10137;49.406;19.484;2023-11-19T14:48:33;1.70;99.90
19952;DHT22;10137;49.406;19.484;2023-11-19T14:51:04;1.70;99.90
19952;DHT22;10137;49.406;19.484;2023-11-19T14:53:33;1.80;99.90
19952;DHT22;10137;49.406;19.484;2023-11-19T14:56:12;1.70;99.90
19952;DHT22;10137;49.406;19.484;2023-11-19T14:58:41;1.80;99.90
19952;DHT22;10137;49.406;19.484;2023-11-19T15:01:12;1.70;99.90
19952;DHT22;10137;49.406;19.484;2023-11-19T15:03:45;1.70;99.90
19952;DHT22;10137;49.406;19.484;2023-11-19T15:06:14;1.80;99.90
19952;DHT22;10137;49.406;19.484;2023-11-19T15:08:42;1.70;99.90
19952;DHT22;10137;49.406;19.484;2023-11-19T15:11:17;1.60;99.90
19952;DHT22;10137;49.406;19.484;2023-11-19T15:13:48;1.60;99.90
19952;DHT22;10137;49.406;19.484;2023-11-19T15:16:21;1.70;99.90
19952;DHT22;10137;49.406;19.484;2023-11-19T15:18:57;1.70;99.90
19952;DHT22;10137;49.406;19.484;2023-11-19T15:21:26;1.70;99.90
19952;DHT22;10137;49.406;19.484;2023-11-19T15:23:55;1.70;99.90
19952;DHT22;10137;49.406;19.484;2023-11-19T15:26:33;1.70;99.90
19952;DHT22;10137;49.406;19.484;2023-11-19T15:29:06;1.70;99.90
19952;DHT22;10137;49.406;19.484;2023-11-19T15:31:36;1.80;99.90
19952;DHT22;10137;49.406;19.484;2023-11-19T15:34:06;1.70;99.90
19952;DHT22;10137;49.406;19.484;2023-11-19T15:36:35;1.80;99.90
19952;DHT22;10137;49.406;19.484;2023-11-19T15:39:04;1.70;99.90
19952;DHT22;10137;49.406;19.484;2023-11-19T15:44:56;1.80;99.90
19952;DHT22;10137;49.406;19.484;2023-11-19T15:47:30;1.80;99.90
19952;DHT22;10137;49.406;19.484;2023-11-19T15:49:59;1.90;99.90
19952;DHT22;10137;49.406;19.484;2023-11-19T15:52:26;1.90;99.90
19952;DHT22;10137;49.406;19.484;2023-11-19T15:55:00;1.90;99.90